createdAt,value
2018-07-05T00:00:35.556Z,25.54
2018-07-05T00:01:16.041Z,25.55
2018-07-05T00:02:54.204Z,25.6
2018-07-05T00:03:34.700Z,25.61
2018-07-05T00:04:16.175Z,25.61
2018-07-05T00:04:57.700Z,25.62
2018-07-05T00:05:38.225Z,25.65
2018-07-05T00:06:18.733Z,25.62
2018-07-05T00:06:59.193Z,25.51
2018-07-05T00:07:39.736Z,25.58
2018-07-05T00:08:20.264Z,25.55
2018-07-05T00:09:01.632Z,25.7
2018-07-05T00:09:42.101Z,25.64
2018-07-05T00:10:22.595Z,25.65
2018-07-05T00:11:03.082Z,25.69
2018-07-05T00:11:43.562Z,25.65
2018-07-05T00:12:24.116Z,25.69
2018-07-05T00:13:04.635Z,25.67
2018-07-05T00:13:45.726Z,25.54
2018-07-05T00:14:26.189Z,25.55
2018-07-05T00:15:06.701Z,25.54
2018-07-05T00:15:47.944Z,25.55
2018-07-05T00:16:28.648Z,25.52
2018-07-05T00:17:09.903Z,25.5
2018-07-05T00:17:50.436Z,25.47
2018-07-05T00:18:30.896Z,25.55
2018-07-05T00:19:11.401Z,25.35
2018-07-05T00:19:51.937Z,25.43
2018-07-05T00:20:32.382Z,25.4
2018-07-05T00:21:12.894Z,25.45
2018-07-05T00:21:53.465Z,25.55
2018-07-05T00:22:35.387Z,25.55
2018-07-05T00:23:15.922Z,25.58
2018-07-05T00:23:57.032Z,25.62
2018-07-05T00:24:37.516Z,25.64
2018-07-05T00:25:18.816Z,25.47
2018-07-05T00:25:59.311Z,25.54
2018-07-05T00:26:39.765Z,25.6
2018-07-05T00:27:20.274Z,25.62
2018-07-05T00:28:00.757Z,25.62
2018-07-05T00:28:41.891Z,25.45
2018-07-05T00:29:22.993Z,25.46
2018-07-05T00:30:03.468Z,25.46
2018-07-05T00:30:44.601Z,25.45
2018-07-05T00:31:25.642Z,25.46
2018-07-05T00:32:06.113Z,25.39
2018-07-05T00:32:46.626Z,25.4
2018-07-05T00:33:27.103Z,25.45
2018-07-05T00:34:07.573Z,25.42
2018-07-05T00:34:48.098Z,25.51
2018-07-05T00:35:29.498Z,25.54
2018-07-05T00:36:09.936Z,25.47
2018-07-05T00:36:50.476Z,25.46
2018-07-05T00:37:30.998Z,25.54
2018-07-05T00:38:11.476Z,25.43
2018-07-05T00:38:51.945Z,25.51
2018-07-05T00:39:32.451Z,25.45
2018-07-05T00:40:12.921Z,25.46
2018-07-05T00:40:54.257Z,25.55
2018-07-05T00:41:34.718Z,25.57
2018-07-05T00:42:15.191Z,25.43
2018-07-05T00:42:55.733Z,25.35
2018-07-05T00:43:36.997Z,25.39
2018-07-05T00:44:18.330Z,25.39
2018-07-05T00:44:58.817Z,25.33
2018-07-05T00:45:39.304Z,25.45
2018-07-05T00:46:19.804Z,25.25
2018-07-05T00:47:00.301Z,25.39
2018-07-05T00:47:40.749Z,25.3
2018-07-05T00:48:21.285Z,25.33
2018-07-05T00:49:01.832Z,25.38
2018-07-05T00:49:42.272Z,25.28
2018-07-05T00:50:22.727Z,25.35
2018-07-05T00:51:03.272Z,25.36
2018-07-05T00:51:43.757Z,25.4
2018-07-05T00:52:24.250Z,25.36
2018-07-05T00:53:04.745Z,25.3
2018-07-05T00:53:45.209Z,25.24
2018-07-05T00:54:25.727Z,25.18
2018-07-05T00:55:06.203Z,25.28
2018-07-05T00:55:46.714Z,25.28
2018-07-05T00:56:27.223Z,25.3
2018-07-05T00:57:07.720Z,25.21
2018-07-05T00:57:48.219Z,25.18
2018-07-05T00:58:28.713Z,25.2
2018-07-05T00:59:09.191Z,25.18
2018-07-05T00:59:49.733Z,25.27
2018-07-05T01:00:30.231Z,25.2
2018-07-05T01:01:10.697Z,25.18
2018-07-05T01:01:52.696Z,25.28
2018-07-05T01:02:33.198Z,25.17
2018-07-05T01:03:13.702Z,25.28
2018-07-05T01:03:54.204Z,25.21
2018-07-05T01:04:34.695Z,25.28
2018-07-05T01:05:15.241Z,25.09
2018-07-05T01:05:55.719Z,25.06
2018-07-05T01:06:36.176Z,25.1
2018-07-05T01:07:16.693Z,25.06
2018-07-05T01:07:57.231Z,24.99
2018-07-05T01:08:37.691Z,25.03
2018-07-05T01:09:18.174Z,25.08
2018-07-05T01:09:58.766Z,25
2018-07-05T01:10:39.219Z,24.98
2018-07-05T01:11:19.713Z,24.91
2018-07-05T01:12:00.218Z,24.9
2018-07-05T01:12:42.428Z,24.9
2018-07-05T01:13:22.836Z,24.87
2018-07-05T01:14:03.337Z,24.9
2018-07-05T01:14:43.869Z,24.9
2018-07-05T01:15:25.175Z,24.93
2018-07-05T01:16:06.398Z,24.85
2018-07-05T01:16:46.921Z,24.93
2018-07-05T01:17:27.453Z,24.84
2018-07-05T01:18:08.931Z,24.81
2018-07-05T01:18:49.435Z,24.78
2018-07-05T01:19:29.891Z,24.95
2018-07-05T01:20:10.378Z,24.9
2018-07-05T01:20:50.892Z,24.88
2018-07-05T01:21:32.353Z,24.95
2018-07-05T01:22:12.813Z,24.91
2018-07-05T01:22:53.387Z,24.9
2018-07-05T01:23:33.848Z,25
2018-07-05T01:24:14.365Z,24.95
2018-07-05T01:24:54.861Z,24.85
2018-07-05T01:25:35.339Z,24.76
2018-07-05T01:26:15.886Z,24.85
2018-07-05T01:26:56.362Z,24.95
2018-07-05T01:27:36.822Z,24.87
2018-07-05T01:28:17.355Z,24.9
2018-07-05T01:28:57.834Z,24.84
2018-07-05T01:29:38.372Z,24.78
2018-07-05T01:30:18.821Z,24.91
2018-07-05T01:30:59.352Z,24.85
2018-07-05T01:31:39.833Z,24.88
2018-07-05T01:32:20.327Z,24.98
2018-07-05T01:33:00.852Z,25
2018-07-05T01:33:41.317Z,25.03
2018-07-05T01:34:21.809Z,25.05
2018-07-05T01:35:02.314Z,25.13
2018-07-05T01:35:42.848Z,25.06
2018-07-05T01:36:24.277Z,25.02
2018-07-05T01:37:04.745Z,24.93
2018-07-05T01:37:46.852Z,24.83
2018-07-05T01:38:27.340Z,24.95
2018-07-05T01:39:07.802Z,24.88
2018-07-05T01:39:48.858Z,24.95
2018-07-05T01:40:29.610Z,24.83
2018-07-05T01:41:09.923Z,24.9
2018-07-05T01:41:50.415Z,24.8
2018-07-05T01:42:30.905Z,24.91
2018-07-05T01:43:11.448Z,24.87
2018-07-05T01:43:51.937Z,24.81
2018-07-05T01:44:32.420Z,24.91
2018-07-05T01:45:12.886Z,24.9
2018-07-05T01:45:54.044Z,24.93
2018-07-05T01:46:35.349Z,25
2018-07-05T01:47:15.832Z,25
2018-07-05T01:47:56.299Z,25
2018-07-05T01:48:36.800Z,25
2018-07-05T01:49:17.312Z,25.05
2018-07-05T01:49:57.779Z,24.99
2018-07-05T01:50:38.248Z,24.96
2018-07-05T01:51:18.740Z,24.93
2018-07-05T01:51:59.240Z,24.93
2018-07-05T01:52:39.784Z,24.96
2018-07-05T01:53:21.125Z,24.85
2018-07-05T01:54:02.340Z,24.78
2018-07-05T01:54:42.836Z,24.71
2018-07-05T01:55:23.384Z,24.62
2018-07-05T01:56:04.882Z,24.65
2018-07-05T01:56:45.350Z,24.65
2018-07-05T01:57:25.839Z,24.8
2018-07-05T01:58:06.345Z,24.78
2018-07-05T01:58:47.750Z,24.62
2018-07-05T01:59:28.281Z,24.65
2018-07-05T02:00:09.714Z,24.61
2018-07-05T02:00:50.844Z,24.62
2018-07-05T02:01:31.328Z,24.61
2018-07-05T02:02:11.844Z,24.6
2018-07-05T02:02:52.342Z,24.55
2018-07-05T02:03:32.828Z,24.52
2018-07-05T02:04:13.325Z,24.5
2018-07-05T02:04:53.852Z,24.55
2018-07-05T02:05:34.346Z,24.45
2018-07-05T02:06:14.821Z,24.58
2018-07-05T02:06:55.321Z,24.49
2018-07-05T02:07:36.676Z,24.47
2018-07-05T02:08:17.161Z,24.47
2018-07-05T02:08:57.704Z,24.52
2018-07-05T02:09:38.158Z,24.65
2018-07-05T02:10:19.412Z,24.68
2018-07-05T02:10:59.940Z,24.57
2018-07-05T02:11:40.409Z,24.62
2018-07-05T02:12:20.897Z,24.52
2018-07-05T02:13:01.389Z,24.49
2018-07-05T02:13:41.853Z,24.62
2018-07-05T02:14:22.398Z,24.53
2018-07-05T02:15:02.854Z,24.67
2018-07-05T02:15:43.369Z,24.69
2018-07-05T02:16:23.885Z,24.53
2018-07-05T02:17:04.449Z,24.53
2018-07-05T02:17:45.784Z,24.47
2018-07-05T02:18:26.285Z,24.28
2018-07-05T02:19:06.797Z,24.31
2018-07-05T02:19:47.243Z,24.4
2018-07-05T02:20:28.359Z,24.27
2018-07-05T02:21:08.914Z,24.28
2018-07-05T02:21:50.279Z,24.22
2018-07-05T02:22:31.692Z,24.3
2018-07-05T02:23:12.759Z,24.31
2018-07-05T02:23:53.303Z,24.31
2018-07-05T02:24:33.800Z,24.37
2018-07-05T02:25:14.307Z,24.28
2018-07-05T02:25:54.805Z,24.3
2018-07-05T02:26:35.294Z,24.31
2018-07-05T02:27:15.809Z,24.3
2018-07-05T02:27:56.267Z,24.24
2018-07-05T02:28:37.800Z,24.22
2018-07-05T02:29:18.318Z,24.15
2018-07-05T02:29:58.813Z,24.1
2018-07-05T02:30:39.693Z,24.12
2018-07-05T02:31:20.254Z,24.13
2018-07-05T02:32:00.741Z,24.15
2018-07-05T02:32:41.250Z,24.05
2018-07-05T02:33:21.746Z,24.05
2018-07-05T02:34:02.232Z,24
2018-07-05T02:34:42.714Z,23.97
2018-07-05T02:35:23.222Z,23.91
2018-07-05T02:36:03.678Z,23.95
2018-07-05T02:36:44.138Z,24.05
2018-07-05T02:37:24.622Z,24.09
2018-07-05T02:38:05.133Z,24.13
2018-07-05T02:38:45.627Z,24.16
2018-07-05T02:39:26.154Z,24.1
2018-07-05T02:40:06.652Z,24.13
2018-07-05T02:40:47.102Z,24.21
2018-07-05T02:41:27.601Z,24.18
2018-07-05T02:42:08.065Z,24.27
2018-07-05T02:42:48.554Z,24.25
2018-07-05T02:43:29.079Z,24.3
2018-07-05T02:44:09.600Z,24.25
2018-07-05T02:44:51.052Z,24.09
2018-07-05T02:45:32.365Z,24.27
2018-07-05T02:46:12.893Z,24.3
2018-07-05T02:46:53.356Z,24.3
2018-07-05T02:47:33.856Z,24.28
2018-07-05T02:48:15.172Z,24.3
2018-07-05T02:48:55.698Z,24.15
2018-07-05T02:49:36.783Z,24.16
2018-07-05T02:50:17.314Z,24.13
2018-07-05T02:50:57.783Z,24.13
2018-07-05T02:51:39.164Z,24.25
2018-07-05T02:52:19.700Z,24.21
2018-07-05T02:53:01.053Z,24.24
2018-07-05T02:53:41.529Z,24.18
2018-07-05T02:54:22.054Z,24.1
2018-07-05T02:55:02.567Z,24.12
2018-07-05T02:55:43.075Z,24.28
2018-07-05T02:56:23.584Z,24.15
2018-07-05T02:57:04.029Z,24.12
2018-07-05T02:57:45.067Z,23.95
2018-07-05T02:58:25.600Z,24.05
2018-07-05T02:59:06.107Z,24.03
2018-07-05T02:59:46.574Z,23.93
2018-07-05T03:00:27.069Z,23.98
2018-07-05T03:01:07.529Z,24.03
2018-07-05T03:01:48.029Z,24.18
2018-07-05T03:02:28.540Z,24.13
2018-07-05T03:03:09.022Z,24.12
2018-07-05T03:03:49.509Z,24.13
2018-07-05T03:04:30.958Z,24.1
2018-07-05T03:05:11.392Z,24.09
2018-07-05T03:05:51.926Z,24.03
2018-07-05T03:06:33.405Z,24.06
2018-07-05T03:07:13.895Z,24.03
2018-07-05T03:07:54.364Z,24.02
2018-07-05T03:08:34.869Z,23.98
2018-07-05T03:09:15.370Z,23.84
2018-07-05T03:09:55.895Z,23.88
2018-07-05T03:10:36.331Z,23.9
2018-07-05T03:11:16.852Z,23.98
2018-07-05T03:11:57.351Z,23.91
2018-07-05T03:12:38.571Z,23.91
2018-07-05T03:13:19.077Z,23.91
2018-07-05T03:14:00.214Z,23.95
2018-07-05T03:14:40.698Z,23.98
2018-07-05T03:15:21.192Z,23.88
2018-07-05T03:16:01.722Z,23.88
2018-07-05T03:16:42.196Z,23.97
2018-07-05T03:17:22.686Z,23.93
2018-07-05T03:18:03.929Z,23.88
2018-07-05T03:18:44.414Z,23.8
2018-07-05T03:19:25.931Z,23.83
2018-07-05T03:20:06.385Z,23.73
2018-07-05T03:20:47.601Z,23.79
2018-07-05T03:21:28.091Z,23.69
2018-07-05T03:22:08.549Z,23.72
2018-07-05T03:22:49.024Z,23.55
2018-07-05T03:23:29.585Z,23.48
2018-07-05T03:24:10.062Z,23.63
2018-07-05T03:24:50.517Z,23.63
2018-07-05T03:25:32.023Z,23.76
2018-07-05T03:26:12.496Z,23.7
2018-07-05T03:26:52.970Z,23.66
2018-07-05T03:27:33.452Z,23.51
2018-07-05T03:28:13.995Z,23.5
2018-07-05T03:28:54.439Z,23.65
2018-07-05T03:29:34.941Z,23.65
2018-07-05T03:30:15.406Z,23.75
2018-07-05T03:30:55.912Z,23.91
2018-07-05T03:31:36.946Z,23.84
2018-07-05T03:32:17.397Z,23.88
2018-07-05T03:32:59.402Z,23.88
2018-07-05T03:33:39.947Z,23.93
2018-07-05T03:34:20.419Z,24.02
2018-07-05T03:35:00.921Z,23.87
2018-07-05T03:35:41.422Z,23.73
2018-07-05T03:36:21.871Z,23.5
2018-07-05T03:37:02.405Z,23.54
2018-07-05T03:37:43.918Z,23.5
2018-07-05T03:38:25.007Z,23.54
2018-07-05T03:39:06.485Z,23.42
2018-07-05T03:39:46.928Z,23.47
2018-07-05T03:40:28.094Z,23.48
2018-07-05T03:41:08.626Z,23.36
2018-07-05T03:41:49.176Z,23.4
2018-07-05T03:42:29.612Z,23.42
2018-07-05T03:43:10.137Z,23.48
2018-07-05T03:45:08.388Z,23.55
2018-07-05T03:45:49.839Z,23.57
2018-07-05T03:46:30.364Z,23.54
2018-07-05T03:47:11.054Z,23.54
2018-07-05T03:47:51.598Z,23.48
2018-07-05T03:48:32.084Z,23.39
2018-07-05T03:49:12.579Z,23.36
2018-07-05T03:49:54.078Z,23.38
2018-07-05T03:50:34.610Z,23.43
2018-07-05T03:51:15.101Z,23.46
2018-07-05T03:51:55.548Z,23.53
2018-07-05T03:52:36.055Z,23.46
2018-07-05T03:53:17.354Z,23.4
2018-07-05T03:53:57.872Z,23.48
2018-07-05T03:54:39.068Z,23.48
2018-07-05T03:55:19.649Z,23.47
2018-07-05T03:56:00.079Z,23.4
2018-07-05T03:56:40.588Z,23.39
2018-07-05T03:57:21.966Z,23.47
2018-07-05T03:58:59.856Z,23.6
2018-07-05T03:59:40.716Z,23.58
2018-07-05T04:00:21.218Z,23.55
2018-07-05T04:01:01.711Z,23.68
2018-07-05T04:01:42.305Z,23.53
2018-07-05T04:02:22.833Z,23.55
2018-07-05T04:03:03.253Z,23.58
2018-07-05T04:03:43.753Z,23.55
2018-07-05T04:04:24.309Z,23.51
2018-07-05T04:05:05.613Z,23.51
2018-07-05T04:05:46.115Z,23.61
2018-07-05T04:06:26.657Z,23.75
2018-07-05T04:07:07.141Z,23.7
2018-07-05T04:07:47.677Z,23.7
2018-07-05T04:08:28.136Z,23.8
2018-07-05T04:09:08.665Z,23.73
2018-07-05T04:09:49.189Z,23.9
2018-07-05T04:10:29.715Z,23.84
2018-07-05T04:11:10.181Z,23.87
2018-07-05T04:11:51.439Z,24
2018-07-05T04:12:31.970Z,23.94
2018-07-05T04:13:13.237Z,23.95
2018-07-05T04:13:54.631Z,23.94
2018-07-05T04:14:35.748Z,24
2018-07-05T04:15:16.295Z,24
2018-07-05T04:15:56.799Z,24.1
2018-07-05T04:16:38.131Z,24.09
2018-07-05T04:17:18.658Z,24.09
2018-07-05T04:17:59.180Z,24.15
2018-07-05T04:18:39.669Z,24.15
2018-07-05T04:19:20.126Z,24.1
2018-07-05T04:20:00.605Z,24.15
2018-07-05T04:20:41.087Z,24.13
2018-07-05T04:21:21.614Z,24.08
2018-07-05T04:22:02.087Z,24.13
2018-07-05T04:22:42.576Z,24.05
2018-07-05T04:23:23.067Z,24.08
2018-07-05T04:24:04.652Z,24.16
2018-07-05T04:24:45.049Z,24.06
2018-07-05T04:25:26.236Z,24.08
2018-07-05T04:26:06.731Z,24.09
2018-07-05T04:26:47.254Z,24.15
2018-07-05T04:27:27.758Z,24.16
2018-07-05T04:28:08.249Z,24.13
2018-07-05T04:28:48.742Z,24.16
2018-07-05T04:29:29.905Z,24.18
2018-07-05T04:30:10.416Z,24.09
2018-07-05T04:30:50.964Z,24.15
2018-07-05T04:31:31.460Z,24.13
2018-07-05T04:32:11.936Z,24.12
2018-07-05T04:32:52.446Z,24.16
2018-07-05T04:33:32.984Z,24.15
2018-07-05T04:34:13.556Z,24.16
2018-07-05T04:34:53.972Z,24.24
2018-07-05T04:35:34.486Z,24.05
2018-07-05T04:36:14.963Z,24.13
2018-07-05T04:36:55.550Z,24
2018-07-05T04:37:36.046Z,23.87
2018-07-05T04:38:16.544Z,23.95
2018-07-05T04:38:57.047Z,24.05
2018-07-05T04:39:37.539Z,24.03
2018-07-05T04:40:18.880Z,24.03
2018-07-05T04:40:59.352Z,24.03
2018-07-05T04:41:39.809Z,24.08
2018-07-05T04:42:20.273Z,24.09
2018-07-05T04:43:00.931Z,24.03
2018-07-05T04:43:41.426Z,24.06
2018-07-05T04:44:23.940Z,24.13
2018-07-05T04:45:04.467Z,24.13
2018-07-05T04:45:44.917Z,24.16
2018-07-05T04:46:25.417Z,24.05
2018-07-05T04:47:05.917Z,24.1
2018-07-05T04:47:46.486Z,24.06
2018-07-05T04:48:27.677Z,24.03
2018-07-05T04:49:08.172Z,23.85
2018-07-05T04:49:48.704Z,23.93
2018-07-05T04:50:29.183Z,23.98
2018-07-05T04:51:10.953Z,23.85
2018-07-05T04:51:51.370Z,23.87
2018-07-05T04:52:31.889Z,23.8
2018-07-05T04:53:12.356Z,23.85
2018-07-05T04:53:52.901Z,23.83
2018-07-05T04:54:33.418Z,23.87
2018-07-05T04:55:13.861Z,23.94
2018-07-05T04:55:55.888Z,23.94
2018-07-05T04:56:36.338Z,24.08
2018-07-05T04:57:16.865Z,24.08
2018-07-05T04:57:57.846Z,24.1
2018-07-05T04:58:38.366Z,24.27
2018-07-05T04:59:18.849Z,24.12
2018-07-05T04:59:59.372Z,24.18
2018-07-05T05:00:39.928Z,24.15
2018-07-05T05:01:20.622Z,24.12
2018-07-05T05:02:02.876Z,24.16
2018-07-05T05:02:43.338Z,24.06
2018-07-05T05:03:23.884Z,24.1
2018-07-05T05:04:04.364Z,24.05
2018-07-05T05:04:44.809Z,24.03
2018-07-05T05:05:25.379Z,24.05
2018-07-05T05:06:05.838Z,24.06
2018-07-05T05:06:46.739Z,24.12
2018-07-05T05:07:27.201Z,24.15
2018-07-05T05:08:07.693Z,24.13
2018-07-05T05:08:48.291Z,24.09
2018-07-05T05:09:28.788Z,24.1
2018-07-05T05:10:09.251Z,24.22
2018-07-05T05:10:49.831Z,24.15
2018-07-05T05:11:30.328Z,24.15
2018-07-05T05:12:10.805Z,24.12
2018-07-05T05:12:51.320Z,24.15
2018-07-05T05:13:31.850Z,24.2
2018-07-05T05:14:12.350Z,24.25
2018-07-05T05:14:52.897Z,24.34
2018-07-05T05:15:33.347Z,24.37
2018-07-05T05:16:13.865Z,24.47
2018-07-05T05:16:55.199Z,24.49
2018-07-05T05:17:35.759Z,24.46
2018-07-05T05:18:16.416Z,24.47
2018-07-05T05:18:56.967Z,24.5
2018-07-05T05:19:37.591Z,24.42
2018-07-05T05:20:18.827Z,24.3
2018-07-05T05:20:59.868Z,24.28
2018-07-05T05:21:40.401Z,24.24
2018-07-05T05:22:21.468Z,24.22
2018-07-05T05:23:01.929Z,24.28
2018-07-05T05:23:42.417Z,24.15
2018-07-05T05:24:22.915Z,24.13
2018-07-05T05:25:03.383Z,24.25
2018-07-05T05:25:43.850Z,24.27
2018-07-05T05:26:24.401Z,24.25
2018-07-05T05:27:04.920Z,24.3
2018-07-05T05:27:45.441Z,24.22
2018-07-05T05:28:25.889Z,24.24
2018-07-05T05:29:06.466Z,24.27
2018-07-05T05:29:46.897Z,24.3
2018-07-05T05:30:27.466Z,24.16
2018-07-05T05:31:07.958Z,24.22
2018-07-05T05:31:48.465Z,24.27
2018-07-05T05:32:28.992Z,24.31
2018-07-05T05:33:09.457Z,24.46
2018-07-05T05:33:50.808Z,24.57
2018-07-05T05:34:31.315Z,24.52
2018-07-05T05:35:11.783Z,24.42
2018-07-05T05:35:52.290Z,24.42
2018-07-05T05:36:33.687Z,24.5
2018-07-05T05:37:14.179Z,24.47
2018-07-05T05:37:54.721Z,24.47
2018-07-05T05:38:35.959Z,24.45
2018-07-05T05:39:16.412Z,24.57
2018-07-05T05:39:56.955Z,24.6
2018-07-05T05:40:37.417Z,24.42
2018-07-05T05:41:17.924Z,24.42
2018-07-05T05:41:58.443Z,24.42
2018-07-05T05:42:38.949Z,24.39
2018-07-05T05:43:20.101Z,24.46
2018-07-05T05:44:00.577Z,24.46
2018-07-05T05:44:41.077Z,24.35
2018-07-05T05:45:23.064Z,24.43
2018-07-05T05:46:03.557Z,24.47
2018-07-05T05:46:44.062Z,24.4
2018-07-05T05:47:24.626Z,24.37
2018-07-05T05:48:05.213Z,24.3
2018-07-05T05:48:45.617Z,24.21
2018-07-05T05:49:26.091Z,24.31
2018-07-05T05:50:06.609Z,24.52
2018-07-05T05:50:47.101Z,24.62
2018-07-05T05:51:27.628Z,24.62
2018-07-05T05:52:08.153Z,24.64
2018-07-05T05:52:50.776Z,24.73
2018-07-05T05:53:31.318Z,24.83
2018-07-05T05:54:11.801Z,24.77
2018-07-05T05:54:52.785Z,24.87
2018-07-05T05:55:33.362Z,24.69
2018-07-05T05:56:13.830Z,24.81
2018-07-05T05:56:54.297Z,24.65
2018-07-05T05:57:35.718Z,24.76
2018-07-05T05:58:16.191Z,24.81
2018-07-05T05:58:57.296Z,24.77
2018-07-05T05:59:37.833Z,24.84
2018-07-05T06:00:18.357Z,24.93
2018-07-05T06:00:59.520Z,24.9
2018-07-05T06:01:39.990Z,25.02
2018-07-05T06:02:20.510Z,25.03
2018-07-05T06:03:01.240Z,25.14
2018-07-05T06:03:41.782Z,25.28
2018-07-05T06:04:22.906Z,25.36
2018-07-05T06:05:03.361Z,25.43
2018-07-05T06:05:43.917Z,25.4
2018-07-05T06:06:24.419Z,25.6
2018-07-05T06:07:04.894Z,25.45
2018-07-05T06:07:45.400Z,25.54
2018-07-05T06:08:25.874Z,25.69
2018-07-05T06:09:06.398Z,25.92
2018-07-05T06:09:47.453Z,25.91
2018-07-05T06:10:27.953Z,25.9
2018-07-05T06:11:08.435Z,26.02
2018-07-05T06:11:48.959Z,25.98
2018-07-05T06:12:29.605Z,26.05
2018-07-05T06:13:10.174Z,26.13
2018-07-05T06:13:51.296Z,26.18
2018-07-05T06:14:31.881Z,26.21
2018-07-05T06:15:12.329Z,26.18
2018-07-05T06:15:53.492Z,26.13
2018-07-05T06:16:33.996Z,26.05
2018-07-05T06:17:15.740Z,25.94
2018-07-05T06:17:57.746Z,26.06
2018-07-05T06:18:38.229Z,26.01
2018-07-05T06:19:19.708Z,26.13
2018-07-05T06:20:00.392Z,26.06
2018-07-05T06:20:41.073Z,25.97
2018-07-05T06:21:22.255Z,25.91
2018-07-05T06:22:02.715Z,25.88
2018-07-05T06:22:44.157Z,25.8
2018-07-05T06:23:25.164Z,25.76
2018-07-05T06:24:05.688Z,25.8
2018-07-05T06:24:46.162Z,25.77
2018-07-05T06:25:26.693Z,25.69
2018-07-05T06:26:08.121Z,25.76
2018-07-05T06:26:48.605Z,25.64
2018-07-05T06:27:29.078Z,25.54
2018-07-05T06:28:10.201Z,25.42
2018-07-05T06:28:51.510Z,25.2
2018-07-05T06:29:32.885Z,25.21
2018-07-05T06:30:13.497Z,25.27
2018-07-05T06:30:54.001Z,25.28
2018-07-05T06:31:34.502Z,25.32
2018-07-05T06:32:15.657Z,25.08
2018-07-05T06:32:56.369Z,25.14
2018-07-05T06:33:36.928Z,25.32
2018-07-05T06:34:17.399Z,25.28
2018-07-05T06:34:57.959Z,25.23
2018-07-05T06:35:38.494Z,25.24
2018-07-05T06:36:19.031Z,25.14
2018-07-05T06:36:59.511Z,25.27
2018-07-05T06:37:40.046Z,25.2
2018-07-05T06:38:20.504Z,25.35
2018-07-05T06:39:01.914Z,25.25
2018-07-05T06:39:42.443Z,25.17
2018-07-05T06:40:22.919Z,25.21
2018-07-05T06:41:03.538Z,25.13
2018-07-05T06:41:44.052Z,25.09
2018-07-05T06:42:24.582Z,25.21
2018-07-05T06:43:05.307Z,25.3
2018-07-05T06:43:45.828Z,25.35
2018-07-05T06:44:26.422Z,25.2
2018-07-05T06:45:06.979Z,25.21
2018-07-05T06:45:47.486Z,25.35
2018-07-05T06:46:28.526Z,25.43
2018-07-05T06:47:08.983Z,25.35
2018-07-05T06:47:49.513Z,25.14
2018-07-05T06:48:30.008Z,25.09
2018-07-05T06:49:11.288Z,25.1
2018-07-05T06:49:51.770Z,25.2
2018-07-05T06:50:32.347Z,25.1
2018-07-05T06:51:13.646Z,24.99
2018-07-05T06:51:54.306Z,24.96
2018-07-05T06:52:34.818Z,25.13
2018-07-05T06:53:15.354Z,25.1
2018-07-05T06:53:57.102Z,25.13
2018-07-05T06:54:38.743Z,25
2018-07-05T06:55:19.291Z,24.87
2018-07-05T06:55:59.889Z,24.77
2018-07-05T06:56:41.191Z,24.95
2018-07-05T06:57:21.777Z,24.99
2018-07-05T06:58:02.214Z,25.1
2018-07-05T06:58:42.767Z,25.1
2018-07-05T06:59:23.774Z,25.14
2018-07-05T07:00:04.298Z,25.28
2018-07-05T07:00:44.774Z,25.2
2018-07-05T07:01:25.500Z,25.24
2018-07-05T07:02:06.050Z,25.14
2018-07-05T07:02:46.596Z,25.14
2018-07-05T07:03:27.064Z,25.13
2018-07-05T07:04:07.573Z,25.14
2018-07-05T07:04:48.048Z,25.05
2018-07-05T07:05:28.558Z,25.13
2018-07-05T07:06:09.047Z,25.08
2018-07-05T07:06:50.432Z,24.99
2018-07-05T07:07:31.450Z,25.03
2018-07-05T07:08:12.963Z,25
2018-07-05T07:08:53.438Z,25.03
2018-07-05T07:09:33.963Z,24.81
2018-07-05T07:10:14.452Z,24.93
2018-07-05T07:10:54.988Z,24.99
2018-07-05T07:11:35.542Z,24.96
2018-07-05T07:12:16.092Z,25.06
2018-07-05T07:12:56.591Z,25.15
2018-07-05T07:13:37.079Z,25.14
2018-07-05T07:14:17.641Z,25.17
2018-07-05T07:14:58.130Z,25.18
2018-07-05T07:15:38.581Z,25.33
2018-07-05T07:16:19.142Z,25.14
2018-07-05T07:16:59.762Z,25.14
2018-07-05T07:17:40.244Z,25.14
2018-07-05T07:18:20.725Z,25.14
2018-07-05T07:19:01.242Z,25.13
2018-07-05T07:19:43.243Z,25.14
2018-07-05T07:20:23.735Z,25.14
2018-07-05T07:21:04.223Z,25.21
2018-07-05T07:21:44.712Z,25.15
2018-07-05T07:22:25.237Z,25.21
2018-07-05T07:23:05.743Z,25.21
2018-07-05T07:23:46.862Z,25.3
2018-07-05T07:24:28.242Z,25.2
2018-07-05T07:25:08.759Z,25.18
2018-07-05T07:25:49.252Z,25.3
2018-07-05T07:26:29.744Z,25.45
2018-07-05T07:27:10.302Z,25.3
2018-07-05T07:27:50.854Z,25.35
2018-07-05T07:28:32.287Z,25.43
2018-07-05T07:29:12.763Z,25.43
2018-07-05T07:29:53.250Z,25.39
2018-07-05T07:30:33.779Z,25.46
2018-07-05T07:31:14.442Z,25.39
2018-07-05T07:31:54.911Z,25.42
2018-07-05T07:32:35.398Z,25.42
2018-07-05T07:33:16.069Z,25.4
2018-07-05T07:33:56.455Z,25.46
2018-07-05T07:34:36.985Z,25.42
2018-07-05T07:35:17.459Z,25.47
2018-07-05T07:35:57.978Z,25.54
2018-07-05T07:36:38.555Z,25.51
2018-07-05T07:37:19.078Z,25.4
2018-07-05T07:37:59.609Z,25.39
2018-07-05T07:38:40.095Z,25.5
2018-07-05T07:39:20.620Z,25.46
2018-07-05T07:40:01.113Z,25.36
2018-07-05T07:40:41.612Z,25.39
2018-07-05T07:41:22.166Z,25.27
2018-07-05T07:42:02.641Z,25.24
2018-07-05T07:42:43.163Z,25.13
2018-07-05T07:43:23.644Z,25.24
2018-07-05T07:44:04.185Z,25.18
2018-07-05T07:44:44.659Z,25.24
2018-07-05T07:45:25.169Z,25.17
2018-07-05T07:46:05.647Z,25
2018-07-05T07:46:46.166Z,25.03
2018-07-05T07:47:26.712Z,25.03
2018-07-05T07:48:07.191Z,25.13
2018-07-05T07:48:47.776Z,25.35
2018-07-05T07:49:28.259Z,25.18
2018-07-05T07:50:08.730Z,25.3
2018-07-05T07:50:49.266Z,25.35
2018-07-05T07:51:30.668Z,25.4
2018-07-05T07:52:12.958Z,25.45
2018-07-05T07:52:53.448Z,25.45
2018-07-05T07:53:33.939Z,25.47
2018-07-05T07:54:14.615Z,25.54
2018-07-05T07:54:55.186Z,25.5
2018-07-05T07:55:35.742Z,25.57
2018-07-05T07:56:16.573Z,25.61
2018-07-05T07:56:57.102Z,25.67
2018-07-05T07:57:37.672Z,25.62
2018-07-05T07:58:18.708Z,25.62
2018-07-05T07:58:59.146Z,25.67
2018-07-05T07:59:39.694Z,25.67
2018-07-05T08:00:21.371Z,25.73
2018-07-05T08:01:02.257Z,25.7
2018-07-05T08:01:42.730Z,25.72
2018-07-05T08:02:23.247Z,25.75
2018-07-05T08:03:03.756Z,25.82
2018-07-05T08:03:44.202Z,25.64
2018-07-05T08:04:24.740Z,25.67
2018-07-05T08:05:05.226Z,25.58
2018-07-05T08:05:45.705Z,25.52
2018-07-05T08:06:26.318Z,25.46
2018-07-05T08:07:06.774Z,25.45
2018-07-05T08:07:47.268Z,25.6
2018-07-05T08:08:29.260Z,25.61
2018-07-05T08:09:09.795Z,25.65
2018-07-05T08:09:50.315Z,25.72
2018-07-05T08:10:31.405Z,25.73
2018-07-05T08:11:11.939Z,25.64
2018-07-05T08:11:52.473Z,25.7
2018-07-05T08:12:33.002Z,25.7
2018-07-05T08:13:14.598Z,25.75
2018-07-05T08:13:55.964Z,25.79
2018-07-05T08:14:36.492Z,25.77
2018-07-05T08:15:17.056Z,25.67
2018-07-05T08:15:57.542Z,25.55
2018-07-05T08:16:38.891Z,25.67
2018-07-05T08:17:19.998Z,25.77
2018-07-05T08:18:00.502Z,26.01
2018-07-05T08:18:41.153Z,26.17
2018-07-05T08:19:21.908Z,26.1
2018-07-05T08:20:02.453Z,26.23
2018-07-05T08:20:42.931Z,26.28
2018-07-05T08:21:23.468Z,26.06
2018-07-05T08:22:03.936Z,25.97
2018-07-05T08:22:44.442Z,25.91
2018-07-05T08:23:24.944Z,26.06
2018-07-05T08:24:06.294Z,26.06
2018-07-05T08:24:46.817Z,26.17
2018-07-05T08:25:27.281Z,26.12
2018-07-05T08:26:08.826Z,26.15
2018-07-05T08:26:49.253Z,26.33
2018-07-05T08:27:29.762Z,26.33
2018-07-05T08:28:10.271Z,26.44
2018-07-05T08:28:50.776Z,26.36
2018-07-05T08:29:31.511Z,26.25
2018-07-05T08:30:12.001Z,26.1
2018-07-05T08:30:52.543Z,26.2
2018-07-05T08:31:33.071Z,26.13
2018-07-05T08:32:13.767Z,26.12
2018-07-05T08:32:54.486Z,26.25
2018-07-05T08:33:35.030Z,26.3
2018-07-05T08:34:15.537Z,26.33
2018-07-05T08:34:56.026Z,26.36
2018-07-05T08:35:37.544Z,26.36
2018-07-05T08:36:18.551Z,26.5
2018-07-05T08:36:59.379Z,26.52
2018-07-05T08:37:40.746Z,26.58
2018-07-05T08:38:21.228Z,26.5
2018-07-05T08:39:02.324Z,26.18
2018-07-05T08:39:42.873Z,26.39
2018-07-05T08:40:23.345Z,26.45
2018-07-05T08:41:03.795Z,26.44
2018-07-05T08:41:44.341Z,26.51
2018-07-05T08:42:24.865Z,26.48
2018-07-05T08:43:05.939Z,26.58
2018-07-05T08:43:47.002Z,26.51
2018-07-05T08:44:27.551Z,26.5
2018-07-05T08:45:08.067Z,26.51
2018-07-05T08:45:48.620Z,26.51
2018-07-05T08:46:29.212Z,26.62
2018-07-05T08:47:09.614Z,26.3
2018-07-05T08:47:50.131Z,26.54
2018-07-05T08:48:30.653Z,26.44
2018-07-05T08:49:11.276Z,26.36
2018-07-05T08:49:52.374Z,26.5
2018-07-05T08:50:32.963Z,26.52